Exeter, Canada
Current Conditions -  °F | °C
As of 5:00 PM on Sunday 23 Nov 2014 (Local Time) from CYXU Reporting Station
Overcast Overcast  
Wind Chill: 40°   Ceiling: 18000
Heat Index: 45°   Visibility: 15mi
Dew Point: 41°   Wind: 9mph
Humidity: 87%   Direction: 120°ESE
Pressure: 29.76"   Gusts: NA
Location:  43.35°N, 81.48°W
Report Text: CYXU 232200Z 12008KT 15SM SCT044 BKN180 OVC240 07/05 A2976 RMK SC3CI4CI1 SLP084
Loading
Personal Weather Stations






























Interactive Weather Map New forecast layout! Learn more

10-Day Weather Forecast

Advertisements
Track Severe Weather on mobile